sensor_id;sensor_type;location;lat;lon;timestamp;pressure;altitude;pressure_sealevel;temperature
76007;BMP280;64699;0.000;0.000;2023-01-24T14:14:57;102720.00;;;23.12
76007;BMP280;64699;0.000;0.000;2023-01-24T14:24:26;102721.03;;;23.14
76007;BMP280;64699;0.000;0.000;2023-01-24T14:52:14;102743.97;;;23.09
76007;BMP280;64699;0.000;0.000;2023-01-24T15:19:54;102762.38;;;23.12
76007;BMP280;64699;0.000;0.000;2023-01-24T15:22:31;102755.78;;;23.15
76007;BMP280;64699;0.000;0.000;2023-01-24T15:54:00;102737.69;;;23.09
76007;BMP280;64699;0.000;0.000;2023-01-24T15:59:40;102735.91;;;23.11
76007;BMP280;64699;0.000;0.000;2023-01-24T16:05:16;102725.59;;;23.07
76007;BMP280;64699;0.000;0.000;2023-01-24T16:07:52;102711.47;;;23.05
76007;BMP280;64699;0.000;0.000;2023-01-24T16:10:28;102714.50;;;23.07
76007;BMP280;64699;0.000;0.000;2023-01-24T16:16:17;102720.06;;;23.01
76007;BMP280;64699;0.000;0.000;2023-01-24T16:18:58;102717.53;;;23.03
76007;BMP280;64699;0.000;0.000;2023-01-24T16:24:36;102709.97;;;23.04
76007;BMP280;64699;0.000;0.000;2023-01-24T16:27:10;102707.44;;;23.06
76007;BMP280;64699;0.000;0.000;2023-01-24T16:29:42;102710.47;;;23.08
76007;BMP280;64699;0.000;0.000;2023-01-24T16:32:21;102713.47;;;23.09
76007;BMP280;64699;0.000;0.000;2023-01-24T16:37:46;102722.28;;;23.13
76007;BMP280;64699;0.000;0.000;2023-01-24T16:43:20;102728.81;;;23.16
76007;BMP280;64699;0.000;0.000;2023-01-24T16:45:52;102728.06;;;23.15
76007;BMP280;64699;0.000;0.000;2023-01-24T16:51:33;102732.13;;;23.14
76007;BMP280;64699;0.000;0.000;2023-01-24T16:54:07;102735.13;;;23.16
76007;BMP280;64699;0.000;0.000;2023-01-24T16:56:36;102732.13;;;23.14
76007;BMP280;64699;0.000;0.000;2023-01-24T16:59:34;102742.47;;;23.14
76007;BMP280;64699;0.000;0.000;2023-01-24T17:02:00;102740.44;;;23.14
76007;BMP280;64699;0.000;0.000;2023-01-24T17:04:57;102746.22;;;23.16
76007;BMP280;64699;0.000;0.000;2023-01-24T17:07:27;102743.22;;;23.14
76007;BMP280;64699;0.000;0.000;2023-01-24T17:09:56;102746.00;;;23.14
76007;BMP280;64699;0.000;0.000;2023-01-24T17:12:36;102753.56;;;23.14
76007;BMP280;64699;0.000;0.000;2023-01-24T17:15:06;102741.69;;;23.13
76007;BMP280;64699;0.000;0.000;2023-01-24T17:17:34;102748.75;;;23.14
76007;BMP280;64699;0.000;0.000;2023-01-24T17:20:00;102744.69;;;23.15
76007;BMP280;64699;0.000;0.000;2023-01-24T17:23:13;102742.47;;;23.14
76007;BMP280;64699;0.000;0.000;2023-01-24T17:25:41;102748.28;;;23.11
76007;BMP280;64699;0.000;0.000;2023-01-24T17:28:31;102743.47;;;23.11
76007;BMP280;64699;0.000;0.000;2023-01-24T17:30:57;102735.13;;;23.16
76007;BMP280;64699;0.000;0.000;2023-01-24T17:33:22;102738.19;;;23.18
76007;BMP280;64699;0.000;0.000;2023-01-24T17:35:48;102738.63;;;23.22
76007;BMP280;64699;0.000;0.000;2023-01-24T17:38:14;102736.63;;;23.23
76007;BMP280;64699;0.000;0.000;2023-01-24T17:40:42;102726.81;;;23.22
76007;BMP280;64699;0.000;0.000;2023-01-24T17:43:08;102718.97;;;23.20
76007;BMP280;64699;0.000;0.000;2023-01-24T17:45:34;102715.16;;;23.23
76007;BMP280;64699;0.000;0.000;2023-01-24T17:48:00;102712.94;;;23.22
76007;BMP280;64699;0.000;0.000;2023-01-24T17:50:25;102704.88;;;23.18
76007;BMP280;64699;0.000;0.000;2023-01-24T17:52:53;102707.38;;;23.16
76007;BMP280;64699;0.000;0.000;2023-01-24T17:55:19;102712.94;;;23.16
76007;BMP280;64699;0.000;0.000;2023-01-24T17:57:44;102712.19;;;23.16
76007;BMP280;64699;0.000;0.000;2023-01-24T18:00:10;102717.72;;;23.16
76007;BMP280;64699;0.000;0.000;2023-01-24T18:02:36;102718.00;;;23.18
76007;BMP280;64699;0.000;0.000;2023-01-24T18:05:01;102716.69;;;23.19
76007;BMP280;64699;0.000;0.000;2023-01-24T18:07:27;102719.22;;;23.22
76007;BMP280;64699;0.000;0.000;2023-01-24T18:09:55;102719.47;;;23.24
76007;BMP280;64699;0.000;0.000;2023-01-24T18:12:31;102717.69;;;23.27
76007;BMP280;64699;0.000;0.000;2023-01-24T18:15:00;102726.25;;;23.29
76007;BMP280;64699;0.000;0.000;2023-01-24T18:17:25;102722.97;;;23.30
76007;BMP280;64699;0.000;0.000;2023-01-24T18:19:51;102726.00;;;23.32
76007;BMP280;64699;0.000;0.000;2023-01-24T18:22:19;102733.56;;;23.32
76007;BMP280;64699;0.000;0.000;2023-01-24T18:24:45;102727.50;;;23.33
76007;BMP280;64699;0.000;0.000;2023-01-24T18:27:13;102729.00;;;23.34
76007;BMP280;64699;0.000;0.000;2023-01-24T18:29:39;102724.72;;;23.33
76007;BMP280;64699;0.000;0.000;2023-01-24T18:32:07;102725.47;;;23.34
76007;BMP280;64699;0.000;0.000;2023-01-24T18:34:33;102727.75;;;23.35
76007;BMP280;64699;0.000;0.000;2023-01-24T18:36:59;102726.00;;;23.32
76007;BMP280;64699;0.000;0.000;2023-01-24T18:39:24;102730.03;;;23.31
76007;BMP280;64699;0.000;0.000;2023-01-24T18:41:50;102723.72;;;23.31
76007;BMP280;64699;0.000;0.000;2023-01-24T18:44:16;102721.44;;;23.29
76007;BMP280;64699;0.000;0.000;2023-01-24T18:46:42;102728.56;;;23.25
76007;BMP280;64699;0.000;0.000;2023-01-24T18:49:10;102731.59;;;23.21
76007;BMP280;64699;0.000;0.000;2023-01-24T18:51:36;102722.50;;;23.15
76007;BMP280;64699;0.000;0.000;2023-01-24T18:54:04;102730.34;;;23.11
76007;BMP280;64699;0.000;0.000;2023-01-24T18:56:32;102720.53;;;23.11
76007;BMP280;64699;0.000;0.000;2023-01-24T18:58:57;102723.81;;;23.09
76007;BMP280;64699;0.000;0.000;2023-01-24T19:01:23;102728.09;;;23.10
76007;BMP280;64699;0.000;0.000;2023-01-24T19:03:49;102726.84;;;23.11
76007;BMP280;64699;0.000;0.000;2023-01-24T19:06:15;102734.41;;;23.11
76007;BMP280;64699;0.000;0.000;2023-01-24T19:08:47;102731.66;;;23.11
76007;BMP280;64699;0.000;0.000;2023-01-24T19:11:14;102730.88;;;23.10
76007;BMP280;64699;0.000;0.000;2023-01-24T19:13:45;102732.13;;;23.09
76007;BMP280;64699;0.000;0.000;2023-01-24T19:16:11;102738.19;;;23.08
76007;BMP280;64699;0.000;0.000;2023-01-24T19:18:36;102739.69;;;23.08
76007;BMP280;64699;0.000;0.000;2023-01-24T19:21:08;102729.34;;;23.09
76007;BMP280;64699;0.000;0.000;2023-01-24T19:23:38;102732.88;;;23.09
76007;BMP280;64699;0.000;0.000;2023-01-24T19:26:04;102722.28;;;23.08
76007;BMP280;64699;0.000;0.000;2023-01-24T19:28:30;102731.34;;;23.08
76007;BMP280;64699;0.000;0.000;2023-01-24T19:30:56;102727.09;;;23.08
76007;BMP280;64699;0.000;0.000;2023-01-24T19:33:22;102720.03;;;23.07
76007;BMP280;64699;0.000;0.000;2023-01-24T19:35:49;102714.50;;;23.07
76007;BMP280;64699;0.000;0.000;2023-01-24T19:38:15;102716.50;;;23.06
76007;BMP280;64699;0.000;0.000;2023-01-24T19:40:40;102716.28;;;23.04
76007;BMP280;64699;0.000;0.000;2023-01-24T19:43:06;102721.06;;;23.04
76007;BMP280;64699;0.000;0.000;2023-01-24T19:45:31;102718.31;;;23.04
76007;BMP280;64699;0.000;0.000;2023-01-24T19:47:57;102723.84;;;23.04
76007;BMP280;64699;0.000;0.000;2023-01-24T19:50:22;102715.53;;;23.04
76007;BMP280;64699;0.000;0.000;2023-01-24T19:52:48;102711.72;;;23.01
76007;BMP280;64699;0.000;0.000;2023-01-24T19:55:17;102719.56;;;23.03
76007;BMP280;64699;0.000;0.000;2023-01-24T19:57:43;102708.19;;;23.01
76007;BMP280;64699;0.000;0.000;2023-01-24T20:00:08;102704.69;;;23.00
76007;BMP280;64699;0.000;0.000;2023-01-24T20:02:34;102705.41;;;23.01
76007;BMP280;64699;0.000;0.000;2023-01-24T20:05:00;102703.94;;;23.00
76007;BMP280;64699;0.000;0.000;2023-01-24T20:07:25;102703.19;;;22.99
76007;BMP280;64699;0.000;0.000;2023-01-24T20:09:51;102707.97;;;22.99
76007;BMP280;64699;0.000;0.000;2023-01-24T20:12:16;102702.41;;;22.99
76007;BMP280;64699;0.000;0.000;2023-01-24T20:14:42;102703.19;;;22.99
76007;BMP280;64699;0.000;0.000;2023-01-24T20:17:08;102702.41;;;22.99
76007;BMP280;64699;0.000;0.000;2023-01-24T20:19:33;102704.41;;;22.98
76007;BMP280;64699;0.000;0.000;2023-01-24T20:21:58;102712.72;;;22.98
76007;BMP280;64699;0.000;0.000;2023-01-24T20:24:24;102723.09;;;22.98
76007;BMP280;64699;0.000;0.000;2023-01-24T20:26:51;102719.53;;;22.97
76007;BMP280;64699;0.000;0.000;2023-01-24T20:29:16;102723.59;;;22.96
76007;BMP280;64699;0.000;0.000;2023-01-24T20:31:42;102718.81;;;22.97
76007;BMP280;64699;0.000;0.000;2023-01-24T20:34:07;102704.19;;;22.96
76007;BMP280;64699;0.000;0.000;2023-01-24T20:36:35;102701.94;;;22.95
76007;BMP280;64699;0.000;0.000;2023-01-24T20:39:00;102700.41;;;22.94
76007;BMP280;64699;0.000;0.000;2023-01-24T20:41:26;102706.72;;;22.94
76007;BMP280;64699;0.000;0.000;2023-01-24T20:43:56;102705.94;;;22.94
76007;BMP280;64699;0.000;0.000;2023-01-24T20:46:23;102696.38;;;22.95
76007;BMP280;64699;0.000;0.000;2023-01-24T20:48:49;102694.84;;;22.94
76007;BMP280;64699;0.000;0.000;2023-01-24T20:51:15;102692.06;;;22.94
76007;BMP280;64699;0.000;0.000;2023-01-24T20:53:41;102691.59;;;22.95
76007;BMP280;64699;0.000;0.000;2023-01-24T20:56:07;102685.31;;;22.95
76007;BMP280;64699;0.000;0.000;2023-01-24T20:58:34;102689.31;;;22.94
76007;BMP280;64699;0.000;0.000;2023-01-24T21:01:04;102694.84;;;22.94
76007;BMP280;64699;0.000;0.000;2023-01-24T21:03:30;102695.63;;;22.94
76007;BMP280;64699;0.000;0.000;2023-01-24T21:06:05;102696.13;;;22.93
76007;BMP280;64699;0.000;0.000;2023-01-24T21:08:34;102695.88;;;22.91
76007;BMP280;64699;0.000;0.000;2023-01-24T21:11:01;102699.44;;;22.91
76007;BMP280;64699;0.000;0.000;2023-01-24T21:13:27;102700.16;;;22.92
76007;BMP280;64699;0.000;0.000;2023-01-24T21:15:54;102695.41;;;22.92
76007;BMP280;64699;0.000;0.000;2023-01-24T21:18:19;102691.84;;;22.92
76007;BMP280;64699;0.000;0.000;2023-01-24T21:20:45;102689.06;;;22.92
76007;BMP280;64699;0.000;0.000;2023-01-24T21:23:11;102702.94;;;22.92
76007;BMP280;64699;0.000;0.000;2023-01-24T21:25:36;102700.66;;;22.90
76007;BMP280;64699;0.000;0.000;2023-01-24T21:28:02;102690.84;;;22.89
76007;BMP280;64699;0.000;0.000;2023-01-24T21:30:28;102693.38;;;22.93
76007;BMP280;64699;0.000;0.000;2023-01-24T21:32:53;102686.31;;;22.92
76007;BMP280;64699;0.000;0.000;2023-01-24T21:35:19;102692.63;;;22.92
76007;BMP280;64699;0.000;0.000;2023-01-24T21:37:45;102691.84;;;22.92
76007;BMP280;64699;0.000;0.000;2023-01-24T21:40:10;102697.41;;;22.92
76007;BMP280;64699;0.000;0.000;2023-01-24T21:42:36;102700.94;;;22.92
76007;BMP280;64699;0.000;0.000;2023-01-24T21:45:01;102708.50;;;22.92
76007;BMP280;64699;0.000;0.000;2023-01-24T21:47:27;102702.94;;;22.92
76007;BMP280;64699;0.000;0.000;2023-01-24T21:49:52;102706.97;;;22.91
76007;BMP280;64699;0.000;0.000;2023-01-24T21:52:18;102712.53;;;22.91
76007;BMP280;64699;0.000;0.000;2023-01-24T21:54:43;102705.47;;;22.90
76007;BMP280;64699;0.000;0.000;2023-01-24T21:57:12;102704.72;;;22.89
76007;BMP280;64699;0.000;0.000;2023-01-24T21:59:59;102719.09;;;22.88
76007;BMP280;64699;0.000;0.000;2023-01-24T22:02:26;102700.19;;;22.86
76007;BMP280;64699;0.000;0.000;2023-01-24T22:04:52;102700.19;;;22.86
76007;BMP280;64699;0.000;0.000;2023-01-24T22:07:19;102693.88;;;22.86
76007;BMP280;64699;0.000;0.000;2023-01-24T22:09:45;102693.16;;;22.85
76007;BMP280;64699;0.000;0.000;2023-01-24T22:12:11;102687.06;;;22.87
76007;BMP280;64699;0.000;0.000;2023-01-24T22:14:37;102684.56;;;22.83
76007;BMP280;64699;0.000;0.000;2023-01-24T22:17:15;102691.63;;;22.84
76007;BMP280;64699;0.000;0.000;2023-01-24T22:19:46;102683.06;;;22.82
76007;BMP280;64699;0.000;0.000;2023-01-24T22:27:19;102707.00;;;22.85
76007;BMP280;64699;0.000;0.000;2023-01-24T22:29:45;102703.47;;;22.85
76007;BMP280;64699;0.000;0.000;2023-01-24T22:32:12;102694.41;;;22.84
76007;BMP280;64699;0.000;0.000;2023-01-24T22:34:38;102679.78;;;22.84
76007;BMP280;64699;0.000;0.000;2023-01-24T22:37:08;102671.22;;;22.82
76007;BMP280;64699;0.000;0.000;2023-01-24T22:39:38;102670.47;;;22.81
76007;BMP280;64699;0.000;0.000;2023-01-24T22:42:03;102656.06;;;22.83
76007;BMP280;64699;0.000;0.000;2023-01-24T22:44:29;102655.34;;;22.82
76007;BMP280;64699;0.000;0.000;2023-01-24T22:46:54;102665.69;;;22.82
76007;BMP280;64699;0.000;0.000;2023-01-24T22:49:20;102652.56;;;22.82
76007;BMP280;64699;0.000;0.000;2023-01-24T22:51:46;102656.06;;;22.83
76007;BMP280;64699;0.000;0.000;2023-01-24T22:54:11;102654.06;;;22.83
76007;BMP280;64699;0.000;0.000;2023-01-24T22:56:38;102650.53;;;22.83
76007;BMP280;64699;0.000;0.000;2023-01-24T22:59:03;102646.28;;;22.82
76007;BMP280;64699;0.000;0.000;2023-01-24T23:01:28;102633.91;;;22.83
76007;BMP280;64699;0.000;0.000;2023-01-24T23:03:54;102647.75;;;22.83
76007;BMP280;64699;0.000;0.000;2023-01-24T23:06:20;102637.97;;;22.82
76007;BMP280;64699;0.000;0.000;2023-01-24T23:08:45;102637.97;;;22.82
76007;BMP280;64699;0.000;0.000;2023-01-24T23:11:17;102631.66;;;22.81
76007;BMP280;64699;0.000;0.000;2023-01-24T23:13:42;102633.69;;;22.81
76007;BMP280;64699;0.000;0.000;2023-01-24T23:16:37;102631.91;;;22.78
76007;BMP280;64699;0.000;0.000;2023-01-24T23:19:05;102621.59;;;22.78
76007;BMP280;64699;0.000;0.000;2023-01-24T23:21:51;102613.03;;;22.76
76007;BMP280;64699;0.000;0.000;2023-01-24T23:24:17;102619.09;;;22.75
76007;BMP280;64699;0.000;0.000;2023-01-24T23:26:42;102621.59;;;22.78
76007;BMP280;64699;0.000;0.000;2023-01-24T23:31:36;102629.38;;;22.80
76007;BMP280;64699;0.000;0.000;2023-01-24T23:34:02;102636.44;;;22.81
76007;BMP280;64699;0.000;0.000;2023-01-24T23:36:30;102642.00;;;22.81
76007;BMP280;64699;0.000;0.000;2023-01-24T23:38:57;102642.00;;;22.81
76007;BMP280;64699;0.000;0.000;2023-01-24T23:41:22;102632.91;;;22.80
76007;BMP280;64699;0.000;0.000;2023-01-24T23:43:48;102623.84;;;22.80
76007;BMP280;64699;0.000;0.000;2023-01-24T23:46:13;102614.00;;;22.79
76007;BMP280;64699;0.000;0.000;2023-01-24T23:48:39;102621.59;;;22.78
76007;BMP280;64699;0.000;0.000;2023-01-24T23:51:04;102613.28;;;22.78
76007;BMP280;64699;0.000;0.000;2023-01-24T23:53:30;102611.22;;;22.79
76007;BMP280;64699;0.000;0.000;2023-01-24T23:55:56;102604.44;;;22.80
76007;BMP280;64699;0.000;0.000;2023-01-24T23:58:22;102605.94;;;22.81
